Time;durP1;ratioP1;P1;durP2;ratioP2;P2;SDS_P1;SDS_P2;PMS_P1;PMS_P2;Temp;Humidity;BMP_temperature;BMP_pressure;BME280_temperature;BME280_humidity;BME280_pressure;Samples;Min_cycle;Max_cycle;Signal;HPM_P1;HPM_P2
2022/03/27 00:01:23;;;;;;;15.67;7.07;;;10.20;59.90;;;;;;4190222;28;20382;-63
2022/03/27 00:03:24;;;;;;;15.40;7.30;;;10.20;60.00;;;;;;4191466;28;20058;-60
2022/03/27 00:05:25;;;;;;;16.50;8.57;;;10.10;60.00;;;;;;4189557;28;20106;-55
2022/03/27 00:07:26;;;;;;;17.37;7.93;;;10.10;60.10;;;;;;4191040;28;20059;-55
2022/03/27 00:09:27;;;;;;;18.87;7.33;;;10.10;60.20;;;;;;4189343;28;20040;-62
2022/03/27 00:11:28;;;;;;;17.73;8.60;;;10.00;60.40;;;;;;4191755;28;20024;-61
2022/03/27 00:13:29;;;;;;;16.10;8.10;;;10.00;60.50;;;;;;4189241;28;20052;-59
2022/03/27 00:15:31;;;;;;;20.43;7.77;;;10.00;60.50;;;;;;4190364;28;20071;-55
2022/03/27 00:17:33;;;;;;;19.93;7.37;;;10.00;60.50;;;;;;4187252;28;20511;-56
2022/03/27 00:19:34;;;;;;;17.27;7.87;;;10.00;60.50;;;;;;4190027;28;20086;-56
2022/03/27 00:21:35;;;;;;;18.20;7.07;;;10.00;60.50;;;;;;4190380;28;20086;-51
2022/03/27 00:23:37;;;;;;;18.03;7.83;;;10.00;60.50;;;;;;4188689;28;20094;-52
2022/03/27 00:25:38;;;;;;;21.57;8.33;;;10.00;60.50;;;;;;4189007;28;20488;-65
2022/03/27 00:27:39;;;;;;;21.43;7.23;;;9.90;60.60;;;;;;4189528;28;20534;-56
2022/03/27 00:29:40;;;;;;;22.47;8.07;;;10.00;60.60;;;;;;4190853;28;20094;-62
2022/03/27 00:31:41;;;;;;;20.50;7.43;;;10.00;60.60;;;;;;4189744;28;20025;-58
2022/03/27 00:33:44;;;;;;;20.03;8.43;;;9.90;60.50;;;;;;4190789;28;20044;-58
2022/03/27 00:35:45;;;;;;;20.40;8.13;;;10.00;60.60;;;;;;4189541;28;20113;-57
2022/03/27 00:37:46;;;;;;;14.00;6.40;;;10.00;60.60;;;;;;4190774;28;20098;-56
2022/03/27 00:39:48;;;;;;;17.23;7.73;;;10.10;60.60;;;;;;4187954;28;20036;-50
2022/03/27 00:41:50;;;;;;;14.70;6.33;;;10.10;60.60;;;;;;4190994;28;20040;-56
2022/03/27 00:43:51;;;;;;;13.30;6.27;;;10.20;60.50;;;;;;4179975;28;20041;-53
2022/03/27 00:45:53;;;;;;;16.10;7.00;;;10.30;60.40;;;;;;4176500;28;20067;-59
2022/03/27 00:47:54;;;;;;;16.43;7.10;;;10.40;60.20;;;;;;4189476;28;20086;-63
2022/03/27 00:49:56;;;;;;;12.97;6.47;;;10.50;60.10;;;;;;4190103;28;20037;-63
2022/03/27 00:51:57;;;;;;;17.33;6.57;;;10.60;60.10;;;;;;4189545;28;20042;-62
2022/03/27 00:53:58;;;;;;;18.40;7.20;;;10.70;60.00;;;;;;4188942;28;20048;-63
2022/03/27 00:56:00;;;;;;;15.87;6.37;;;10.70;60.60;;;;;;4190442;28;20036;-63
2022/03/27 00:58:01;;;;;;;14.70;6.80;;;10.70;59.90;;;;;;4189543;28;20063;-64
2022/03/27 01:00:09;;;;;;;16.80;6.47;;;10.80;60.00;;;;;;4188174;28;20378;-62
2022/03/27 01:02:10;;;;;;;12.23;6.63;;;10.80;59.90;;;;;;4156304;28;20436;-56
2022/03/27 01:04:12;;;;;;;16.53;7.23;;;10.90;60.00;;;;;;4157814;28;20087;-56
2022/03/27 01:06:43;;;;;;;19.93;7.13;;;10.80;60.00;;;;;;4156238;28;20359;-55
2022/03/27 01:11:20;;;;;;;17.77;6.80;;;10.90;60.10;;;;;;4157610;28;20092;-56
2022/03/27 01:13:21;;;;;;;12.80;6.97;;;10.90;60.40;;;;;;4156627;28;20068;-55
2022/03/27 01:15:24;;;;;;;15.90;7.00;;;10.90;60.50;;;;;;4163340;28;20036;-50
2022/03/27 01:17:26;;;;;;;16.87;6.70;;;10.90;60.50;;;;;;4174156;28;20036;-58
2022/03/27 01:19:28;;;;;;;17.00;8.07;;;11.00;60.50;;;;;;4172225;28;20049;-58
2022/03/27 01:21:30;;;;;;;17.10;8.70;;;11.00;60.60;;;;;;4174329;28;20037;-57
2022/03/27 01:23:31;;;;;;;17.63;8.23;;;11.00;60.60;;;;;;4176721;28;20113;-55
2022/03/27 01:25:32;;;;;;;20.17;8.17;;;10.90;60.70;;;;;;4193625;28;20044;-55
2022/03/27 01:27:33;;;;;;;21.13;8.40;;;10.90;60.80;;;;;;4190472;28;20041;-57
2022/03/27 01:29:35;;;;;;;21.97;9.17;;;11.00;60.90;;;;;;4191838;28;20044;-56
2022/03/27 01:31:37;;;;;;;18.63;7.87;;;11.00;61.10;;;;;;4190899;28;20440;-56
2022/03/27 01:33:38;;;;;;;15.63;6.47;;;11.00;61.20;;;;;;4192880;28;20082;-57
2022/03/27 01:35:40;;;;;;;14.97;6.70;;;11.00;61.50;;;;;;4179746;28;20102;-65
2022/03/27 01:37:41;;;;;;;18.97;7.63;;;11.10;62.10;;;;;;4176512;28;20175;-62
2022/03/27 01:39:43;;;;;;;14.93;6.17;;;11.10;62.70;;;;;;4176195;28;20481;-60
2022/03/27 01:41:44;;;;;;;16.13;7.43;;;11.10;63.60;;;;;;4176630;28;20087;-56
2022/03/27 01:43:46;;;;;;;15.63;7.60;;;11.20;63.60;;;;;;4176411;28;20102;-63
2022/03/27 01:45:47;;;;;;;15.47;6.70;;;11.20;64.00;;;;;;4176873;28;20654;-59
2022/03/27 01:47:48;;;;;;;13.60;6.90;;;11.30;65.40;;;;;;4176746;28;20020;-62
2022/03/27 01:49:49;;;;;;;15.33;6.70;;;11.30;64.90;;;;;;4175599;28;20040;-56
2022/03/27 01:51:51;;;;;;;13.03;6.97;;;11.30;65.50;;;;;;4177056;28;20029;-55
2022/03/27 01:53:52;;;;;;;16.10;7.40;;;11.40;65.90;;;;;;4175640;28;20123;-54
2022/03/27 01:55:53;;;;;;;14.63;6.73;;;11.40;66.20;;;;;;4177117;28;20025;-57
2022/03/27 01:57:54;;;;;;;13.03;6.50;;;11.40;66.90;;;;;;4175313;28;20033;-57
2022/03/27 01:59:55;;;;;;;11.30;6.63;;;11.40;67.40;;;;;;4176487;28;20094;-55
2022/03/27 02:01:58;;;;;;;18.67;7.37;;;11.40;68.10;;;;;;4184459;28;20058;-57
2022/03/27 02:04:00;;;;;;;14.83;6.93;;;11.40;68.80;;;;;;4192682;28;20041;-57
2022/03/27 02:06:03;;;;;;;14.57;6.73;;;11.40;69.30;;;;;;4191766;28;20021;-57
2022/03/27 02:08:05;;;;;;;13.23;6.50;;;11.40;69.70;;;;;;4192369;28;20086;-57
2022/03/27 02:10:06;;;;;;;13.70;6.73;;;11.40;70.30;;;;;;4191697;28;20025;-55
2022/03/27 02:12:08;;;;;;;13.60;6.90;;;11.40;70.60;;;;;;4191304;28;20533;-57
2022/03/27 02:14:10;;;;;;;10.27;5.70;;;11.40;71.00;;;;;;4177123;28;20033;-57
2022/03/27 02:16:11;;;;;;;13.73;6.57;;;11.30;71.30;;;;;;4175442;28;20098;-57
2022/03/27 02:18:14;;;;;;;13.03;6.80;;;11.30;71.60;;;;;;4176360;28;20025;-55
2022/03/27 02:20:16;;;;;;;11.37;6.40;;;11.30;72.30;;;;;;4175490;28;20075;-57
2022/03/27 02:22:17;;;;;;;12.90;5.77;;;11.30;72.60;;;;;;4176521;28;20459;-57
2022/03/27 02:24:18;;;;;;;19.07;6.60;;;11.20;72.50;;;;;;4174753;28;20041;-58
2022/03/27 02:26:19;;;;;;;11.10;5.27;;;11.20;72.80;;;;;;4176408;28;20033;-66
2022/03/27 02:28:21;;;;;;;11.60;5.90;;;11.20;73.60;;;;;;4175855;28;20102;-57
2022/03/27 02:30:22;;;;;;;12.80;5.87;;;11.20;73.50;;;;;;4176151;28;20029;-56
2022/03/27 02:32:23;;;;;;;10.37;4.87;;;11.20;75.00;;;;;;4174725;28;20041;-56
2022/03/27 02:34:26;;;;;;;8.47;4.87;;;11.20;75.00;;;;;;4175872;28;20091;-59
2022/03/27 02:36:27;;;;;;;11.17;5.40;;;11.20;75.50;;;;;;4174563;28;20485;-61
2022/03/27 02:38:28;;;;;;;12.47;4.93;;;11.20;76.70;;;;;;4187861;28;20094;-57
2022/03/27 02:40:29;;;;;;;8.13;4.83;;;11.20;77.60;;;;;;4191326;28;20036;-58
2022/03/27 02:42:30;;;;;;;8.57;5.07;;;11.20;78.30;;;;;;4191584;28;20443;-57
2022/03/27 02:44:32;;;;;;;8.93;4.70;;;11.10;78.70;;;;;;4191483;28;20550;-58
2022/03/27 02:46:33;;;;;;;6.80;4.33;;;11.10;79.50;;;;;;4191325;28;20114;-57
2022/03/27 02:48:34;;;;;;;7.23;5.10;;;11.10;80.30;;;;;;4192179;28;20028;-56
2022/03/27 02:50:40;;;;;;;9.87;5.50;;;11.10;81.00;;;;;;4190902;28;21000;-56
2022/03/27 02:52:41;;;;;;;9.70;5.27;;;11.00;81.80;;;;;;4186739;28;20464;-57
2022/03/27 02:54:44;;;;;;;11.53;4.70;;;11.00;82.70;;;;;;4190698;28;20075;-54
2022/03/27 02:56:46;;;;;;;9.53;5.37;;;11.00;82.80;;;;;;4192560;28;20024;-55
2022/03/27 02:58:47;;;;;;;10.63;5.57;;;10.90;84.40;;;;;;4190412;28;20117;-57
2022/03/27 03:00:48;;;;;;;8.07;4.50;;;10.80;84.30;;;;;;4191960;28;20066;-56
2022/03/27 03:02:50;;;;;;;7.73;4.47;;;10.80;86.00;;;;;;4189128;28;20595;-56
2022/03/27 03:04:52;;;;;;;10.93;4.90;;;10.80;86.30;;;;;;4191984;28;20032;-57
2022/03/27 03:06:54;;;;;;;12.70;5.87;;;10.80;86.40;;;;;;4190600;28;20093;-54
2022/03/27 03:08:55;;;;;;;8.90;4.80;;;10.70;87.20;;;;;;4192290;28;20040;-54
2022/03/27 03:10:56;;;;;;;9.90;4.87;;;10.70;89.90;;;;;;4191362;28;20036;-54
2022/03/27 03:12:58;;;;;;;7.50;4.53;;;10.60;90.40;;;;;;4191128;28;20067;-56
2022/03/27 03:14:59;;;;;;;11.30;5.17;;;10.60;91.00;;;;;;4190664;28;20085;-56
2022/03/27 03:17:01;;;;;;;8.40;4.73;;;10.50;91.50;;;;;;4184891;28;20041;-55
2022/03/27 03:19:04;;;;;;;6.27;4.50;;;10.50;92.00;;;;;;4174499;28;20029;-52
2022/03/27 03:21:06;;;;;;;6.50;4.07;;;10.40;92.70;;;;;;4174405;28;20075;-58
2022/03/27 03:23:07;;;;;;;7.83;4.73;;;10.40;93.60;;;;;;4175159;28;20063;-55
2022/03/27 03:25:09;;;;;;;7.57;4.23;;;10.30;94.30;;;;;;4174344;28;20091;-56
2022/03/27 03:27:10;;;;;;;9.40;4.63;;;10.30;94.80;;;;;;4176621;28;20550;-53
2022/03/27 03:29:11;;;;;;;8.60;4.33;;;10.20;95.20;;;;;;4174014;28;20053;-50
2022/03/27 03:31:12;;;;;;;9.37;4.07;;;10.20;95.90;;;;;;4175151;28;20045;-60
2022/03/27 03:33:13;;;;;;;7.73;4.07;;;10.10;97.40;;;;;;4173893;28;20044;-56
2022/03/27 03:35:14;;;;;;;6.50;3.83;;;10.10;98.40;;;;;;4175359;28;20086;-54
2022/03/27 03:37:17;;;;;;;7.03;4.00;;;10.00;98.30;;;;;;4173419;28;20056;-54
2022/03/27 03:39:19;;;;;;;6.40;4.13;;;10.00;98.90;;;;;;4174946;28;20044;-55
2022/03/27 03:41:20;;;;;;;5.47;3.50;;;10.00;99.40;;;;;;4174147;28;20037;-61
2022/03/27 03:43:21;;;;;;;9.87;4.00;;;9.90;99.90;;;;;;4174492;28;20045;-50
2022/03/27 03:45:22;;;;;;;4.73;3.50;;;9.90;99.90;;;;;;4198683;28;20133;-57
2022/03/27 03:47:24;;;;;;;6.10;3.50;;;9.80;99.90;;;;;;4191194;28;20033;-67
2022/03/27 03:49:26;;;;;;;6.20;4.00;;;9.80;99.90;;;;;;4190286;28;20078;-66
2022/03/27 03:51:27;;;;;;;6.23;3.90;;;9.80;99.90;;;;;;4181776;28;20044;-66
2022/03/27 03:53:28;;;;;;;6.67;3.30;;;9.70;99.90;;;;;;4184929;28;20086;-63
2022/03/27 03:55:29;;;;;;;6.17;3.90;;;9.70;99.90;;;;;;4190466;28;20028;-62
2022/03/27 03:57:31;;;;;;;5.20;3.00;;;9.60;99.90;;;;;;4190833;28;20451;-66
2022/03/27 03:59:36;;;;;;;5.87;3.40;;;9.60;99.90;;;;;;4189602;28;20044;-59
2022/03/27 04:01:37;;;;;;;5.53;3.67;;;9.60;99.90;;;;;;4189558;28;20048;-51
2022/03/27 04:03:38;;;;;;;7.50;4.57;;;9.50;99.90;;;;;;4189370;28;20061;-66
2022/03/27 04:05:40;;;;;;;6.20;3.40;;;9.40;99.90;;;;;;4190837;28;20052;-64
2022/03/27 04:07:41;;;;;;;4.83;3.17;;;9.40;99.90;;;;;;4189211;28;20044;-66
2022/03/27 04:09:44;;;;;;;6.10;3.57;;;9.30;99.90;;;;;;4190881;28;20048;-53
2022/03/27 04:11:45;;;;;;;4.57;3.20;;;9.30;99.90;;;;;;4189940;28;20967;-54
2022/03/27 04:13:46;;;;;;;5.00;3.27;;;9.20;99.90;;;;;;4190896;28;20097;-53
2022/03/27 04:15:48;;;;;;;4.80;3.20;;;9.20;99.90;;;;;;4187617;28;20050;-56
2022/03/27 04:17:50;;;;;;;7.40;3.57;;;9.20;99.90;;;;;;4191095;28;20047;-55
2022/03/27 04:19:51;;;;;;;6.13;3.03;;;9.20;99.90;;;;;;4189809;28;20475;-54
2022/03/27 04:21:52;;;;;;;5.77;3.10;;;9.10;99.90;;;;;;4189964;28;20721;-52
2022/03/27 04:23:53;;;;;;;4.07;2.93;;;9.10;99.90;;;;;;4190131;28;20113;-57
2022/03/27 04:25:54;;;;;;;5.30;3.50;;;9.00;99.90;;;;;;4189719;28;20033;-57
2022/03/27 04:27:55;;;;;;;5.63;3.60;;;9.00;99.90;;;;;;4190330;28;20437;-54
2022/03/27 04:29:56;;;;;;;6.17;3.60;;;9.00;99.90;;;;;;4188157;28;20040;-49
2022/03/27 04:31:57;;;;;;;6.40;3.73;;;8.90;99.90;;;;;;4190398;28;20145;-52
2022/03/27 04:33:59;;;;;;;4.97;3.80;;;9.00;99.90;;;;;;4189314;28;20086;-50
2022/03/27 04:36:02;;;;;;;5.97;4.30;;;8.90;99.90;;;;;;4190886;28;20078;-57
2022/03/27 04:38:03;;;;;;;7.53;3.97;;;8.80;99.90;;;;;;4189281;28;20056;-55
2022/03/27 04:40:05;;;;;;;6.47;3.77;;;8.80;99.90;;;;;;4189503;28;20118;-53
2022/03/27 04:42:06;;;;;;;7.13;4.20;;;8.70;99.90;;;;;;4185115;28;20075;-59
2022/03/27 04:44:08;;;;;;;6.70;4.20;;;8.70;99.90;;;;;;4174200;28;20516;-66
2022/03/27 04:46:09;;;;;;;6.30;4.67;;;8.60;99.90;;;;;;4173359;28;20032;-58
2022/03/27 04:48:10;;;;;;;6.20;4.00;;;8.60;99.90;;;;;;4173891;28;20539;-55
2022/03/27 04:50:11;;;;;;;8.17;4.30;;;8.60;99.90;;;;;;4173126;28;20048;-57
2022/03/27 04:52:13;;;;;;;7.10;4.20;;;8.70;99.90;;;;;;4173849;28;20025;-57
2022/03/27 04:54:14;;;;;;;9.57;4.70;;;8.80;99.90;;;;;;4173447;28;20177;-55
2022/03/27 04:56:16;;;;;;;7.50;4.03;;;8.90;99.90;;;;;;4172866;28;20536;-62
2022/03/27 04:58:17;;;;;;;6.17;4.40;;;9.10;99.90;;;;;;4173053;28;20041;-59
2022/03/27 05:00:19;;;;;;;8.23;4.43;;;9.40;99.90;;;;;;4172642;28;20481;-59
2022/03/27 05:02:20;;;;;;;7.13;4.70;;;9.30;99.90;;;;;;4190216;28;20739;-57
2022/03/27 05:04:21;;;;;;;9.03;4.77;;;9.20;99.90;;;;;;4188717;28;20102;-57
2022/03/27 05:06:22;;;;;;;7.03;5.10;;;9.00;99.90;;;;;;4189161;28;20436;-55
2022/03/27 05:08:23;;;;;;;7.10;4.40;;;9.00;99.90;;;;;;4172409;28;20045;-59
2022/03/27 05:10:24;;;;;;;10.13;5.37;;;9.00;99.90;;;;;;4174115;28;20041;-57
2022/03/27 05:12:26;;;;;;;10.07;5.57;;;8.90;99.90;;;;;;4172634;28;20040;-65
2022/03/27 05:14:27;;;;;;;10.20;5.13;;;9.00;99.90;;;;;;4173362;28;20052;-64
2022/03/27 05:16:28;;;;;;;12.80;5.63;;;9.00;99.90;;;;;;4172994;28;20360;-63
2022/03/27 05:18:29;;;;;;;12.30;5.40;;;9.20;99.90;;;;;;4174529;28;20097;-66
2022/03/27 05:20:31;;;;;;;10.50;5.60;;;9.40;99.90;;;;;;4172862;28;20474;-65
2022/03/27 05:22:32;;;;;;;8.57;5.00;;;9.60;99.90;;;;;;4173699;28;20065;-63
2022/03/27 05:24:34;;;;;;;6.57;4.63;;;9.80;99.90;;;;;;4173106;28;20701;-60
2022/03/27 05:26:36;;;;;;;9.13;4.93;;;10.10;99.90;;;;;;4188170;28;20481;-58
2022/03/27 05:28:37;;;;;;;9.03;5.13;;;10.20;99.90;;;;;;4173544;28;20560;-59
2022/03/27 05:30:38;;;;;;;14.93;5.40;;;10.40;99.90;;;;;;4172750;28;20033;-57
2022/03/27 05:32:39;;;;;;;8.57;5.10;;;10.80;99.90;;;;;;4174596;28;20539;-58
2022/03/27 05:34:41;;;;;;;13.07;5.93;;;11.10;99.90;;;;;;4172072;28;20045;-58
2022/03/27 05:36:42;;;;;;;7.50;4.87;;;11.20;99.60;;;;;;4173926;28;20506;-57
2022/03/27 05:38:43;;;;;;;8.17;4.20;;;11.30;98.60;;;;;;4172019;28;20049;-56
2022/03/27 05:40:44;;;;;;;7.77;5.33;;;11.30;97.30;;;;;;4173616;28;20523;-57
2022/03/27 05:42:46;;;;;;;7.80;4.60;;;11.40;96.60;;;;;;4172784;28;20099;-57
2022/03/27 05:44:47;;;;;;;10.70;5.33;;;11.50;95.40;;;;;;4173177;28;20071;-53
2022/03/27 05:46:48;;;;;;;8.03;4.33;;;11.60;93.50;;;;;;4172314;28;20037;-58
2022/03/27 05:48:50;;;;;;;11.63;6.43;;;11.70;93.00;;;;;;4188313;28;20074;-60
2022/03/27 05:50:51;;;;;;;7.23;4.33;;;12.00;91.80;;;;;;4172681;28;20021;-54
2022/03/27 05:52:53;;;;;;;7.50;5.47;;;12.00;90.80;;;;;;4173312;28;20029;-58
2022/03/27 05:54:56;;;;;;;10.33;6.13;;;11.90;88.70;;;;;;4172197;28;20103;-53
2022/03/27 05:56:57;;;;;;;9.50;6.23;;;12.00;87.90;;;;;;4176140;28;20566;-57
2022/03/27 05:58:58;;;;;;;10.20;6.93;;;12.30;87.00;;;;;;4172336;28;20543;-57
2022/03/27 06:00:59;;;;;;;9.77;6.67;;;12.50;84.70;;;;;;4175798;28;20025;-60
2022/03/27 06:03:01;;;;;;;15.73;4.47;;;12.50;83.40;;;;;;4173205;28;20049;-57
2022/03/27 06:05:02;;;;;;;9.17;3.97;;;12.50;80.90;;;;;;4171954;28;20033;-58
2022/03/27 06:07:04;;;;;;;5.80;4.00;;;12.40;80.40;;;;;;4173014;28;20049;-60
2022/03/27 06:09:05;;;;;;;7.90;4.00;;;12.40;80.20;;;;;;4182027;28;20086;-65
2022/03/27 06:11:06;;;;;;;6.33;3.90;;;12.30;79.00;;;;;;4192198;28;20468;-56
2022/03/27 06:13:10;;;;;;;10.03;4.40;;;12.20;78.10;;;;;;4188132;28;20036;-56
2022/03/27 06:15:12;;;;;;;10.17;3.90;;;12.20;75.40;;;;;;4179723;28;20025;-55
2022/03/27 06:17:14;;;;;;;5.47;3.73;;;12.00;75.90;;;;;;4174924;28;20049;-57
2022/03/27 06:19:15;;;;;;;9.67;4.80;;;11.80;75.30;;;;;;4175851;28;20037;-59
2022/03/27 06:21:16;;;;;;;7.70;3.70;;;11.50;75.80;;;;;;4174948;28;20538;-62
2022/03/27 06:23:17;;;;;;;7.70;3.97;;;11.40;76.10;;;;;;4176090;28;20106;-58
2022/03/27 06:25:21;;;;;;;10.57;4.10;;;11.30;76.30;;;;;;4175048;28;20029;-56
2022/03/27 06:27:22;;;;;;;10.33;3.73;;;11.40;76.50;;;;;;4175596;28;20041;-55
2022/03/27 06:29:24;;;;;;;8.67;4.00;;;11.40;75.50;;;;;;4175027;28;20041;-53
2022/03/27 06:31:25;;;;;;;9.57;4.27;;;11.30;75.50;;;;;;4172197;28;20037;-61
2022/03/27 06:33:26;;;;;;;10.07;3.97;;;11.20;75.30;;;;;;4158635;28;20100;-53
2022/03/27 06:35:28;;;;;;;9.77;4.07;;;11.10;75.20;;;;;;4169527;28;20147;-56
2022/03/27 06:37:30;;;;;;;8.93;4.30;;;11.30;75.50;;;;;;4175331;28;20045;-59
2022/03/27 06:39:31;;;;;;;12.50;4.47;;;11.40;74.70;;;;;;4166171;28;20046;-57
2022/03/27 06:41:32;;;;;;;6.63;4.03;;;11.50;74.30;;;;;;4170202;28;20095;-55
2022/03/27 06:43:36;;;;;;;6.83;4.57;;;11.40;73.70;;;;;;4174651;28;20032;-52
2022/03/27 06:45:38;;;;;;;8.70;3.70;;;11.50;73.80;;;;;;4175259;28;20025;-56
2022/03/27 06:47:40;;;;;;;6.97;4.27;;;11.60;73.60;;;;;;4177903;28;20044;-56
2022/03/27 06:49:42;;;;;;;9.10;3.90;;;11.60;72.80;;;;;;4175926;28;20718;-56
2022/03/27 06:51:43;;;;;;;7.43;3.97;;;11.70;71.80;;;;;;4174232;28;20041;-57
2022/03/27 06:53:45;;;;;;;6.70;4.03;;;11.70;72.10;;;;;;4176452;28;20049;-59
2022/03/27 06:55:49;;;;;;;10.73;4.33;;;11.90;71.10;;;;;;4190934;28;20454;-59
2022/03/27 06:57:50;;;;;;;8.57;4.50;;;12.00;70.30;;;;;;4192038;28;20090;-59
2022/03/27 07:04:30;;;;;;;13.53;4.40;;;12.20;69.50;;;;;;4178020;28;20045;-59
2022/03/27 07:06:32;;;;;;;6.80;4.20;;;12.10;68.10;;;;;;4175302;28;20049;-59
2022/03/27 07:08:33;;;;;;;11.67;4.27;;;11.90;68.90;;;;;;4174263;28;20033;-55
2022/03/27 07:10:36;;;;;;;9.30;4.07;;;11.90;68.30;;;;;;4188875;28;20094;-57
2022/03/27 07:12:38;;;;;;;10.93;4.63;;;11.70;67.70;;;;;;4174311;28;20040;-58
2022/03/27 07:14:39;;;;;;;6.27;4.07;;;11.60;67.40;;;;;;4174449;28;20049;-55
2022/03/27 07:16:41;;;;;;;13.77;4.80;;;11.60;67.30;;;;;;4175326;28;20072;-58
2022/03/27 07:18:42;;;;;;;10.93;3.97;;;11.80;66.40;;;;;;4173491;28;20082;-57
2022/03/27 07:20:45;;;;;;;11.43;4.50;;;11.80;66.20;;;;;;4174912;28;20045;-58
2022/03/27 07:22:47;;;;;;;7.20;4.27;;;11.90;65.90;;;;;;4173715;28;20045;-54
2022/03/27 07:24:48;;;;;;;9.20;4.50;;;12.00;65.20;;;;;;4174950;28;20044;-57
2022/03/27 07:26:49;;;;;;;8.00;4.63;;;12.00;64.80;;;;;;4173947;28;20032;-58
2022/03/27 07:28:50;;;;;;;9.60;4.27;;;12.00;65.10;;;;;;4175762;28;20114;-56
2022/03/27 07:30:51;;;;;;;15.00;5.77;;;11.80;64.10;;;;;;4173964;28;20029;-52
2022/03/27 07:32:52;;;;;;;14.70;5.60;;;11.70;64.40;;;;;;4170838;28;20036;-50
2022/03/27 07:34:54;;;;;;;13.03;5.83;;;11.80;64.80;;;;;;4173090;28;20114;-54
2022/03/27 07:36:55;;;;;;;13.53;6.30;;;12.00;64.50;;;;;;4174239;28;20115;-56
2022/03/27 07:38:56;;;;;;;11.77;4.77;;;12.00;63.00;;;;;;4173096;28;20086;-55
2022/03/27 07:40:59;;;;;;;54.97;16.37;;;11.80;62.60;;;;;;4173519;28;20091;-56
2022/03/27 07:43:01;;;;;;;19.67;8.97;;;12.00;62.80;;;;;;4173889;28;20396;-55
2022/03/27 07:45:03;;;;;;;12.83;6.00;;;12.00;61.90;;;;;;4176683;28;20106;-54
2022/03/27 07:47:05;;;;;;;34.50;12.27;;;12.10;61.70;;;;;;4175923;28;20045;-52
2022/03/27 07:49:06;;;;;;;43.20;14.60;;;12.30;61.90;;;;;;4173163;28;20079;-54
2022/03/27 07:51:08;;;;;;;9.13;4.80;;;12.40;61.60;;;;;;4174761;28;20079;-51
2022/03/27 07:53:09;;;;;;;10.47;4.33;;;12.30;60.90;;;;;;4172677;28;20048;-55
2022/03/27 07:55:13;;;;;;;7.57;4.43;;;12.20;60.30;;;;;;4174172;28;20036;-55
2022/03/27 07:57:14;;;;;;;9.87;5.23;;;12.30;60.00;;;;;;4173390;28;20033;-54
2022/03/27 07:59:16;;;;;;;11.57;6.00;;;12.30;60.00;;;;;;4174239;28;20428;-55
2022/03/27 08:01:17;;;;;;;8.37;4.10;;;12.40;60.50;;;;;;4172932;28;20513;-57
2022/03/27 08:03:19;;;;;;;6.83;4.00;;;12.50;59.50;;;;;;4174182;28;20099;-56
2022/03/27 08:05:24;;;;;;;7.73;3.93;;;12.50;59.30;;;;;;4173237;28;20874;-56
2022/03/27 08:07:25;;;;;;;10.70;4.00;;;12.50;59.30;;;;;;4174472;28;20044;-54
2022/03/27 08:09:26;;;;;;;6.33;3.27;;;12.50;59.30;;;;;;4172789;28;20477;-56
2022/03/27 08:11:27;;;;;;;4.87;3.23;;;12.40;59.00;;;;;;4173674;28;20881;-53
2022/03/27 08:13:29;;;;;;;4.90;3.03;;;12.50;59.00;;;;;;4174450;28;20025;-52
2022/03/27 08:15:30;;;;;;;7.70;4.57;;;12.50;59.00;;;;;;4173257;28;20463;-58
2022/03/27 08:17:31;;;;;;;5.57;2.90;;;12.40;59.00;;;;;;4173510;28;20029;-51
2022/03/27 08:19:33;;;;;;;7.80;2.67;;;12.40;58.50;;;;;;4173316;28;20045;-50
2022/03/27 08:21:35;;;;;;;8.20;3.03;;;12.30;57.70;;;;;;4173677;28;20044;-56
2022/03/27 08:23:36;;;;;;;5.17;3.33;;;12.30;58.40;;;;;;4175736;28;20078;-52
2022/03/27 08:27:57;;;;;;;8.85;3.92;;;12.60;58.60;;;;;;4189844;28;20040;-54
2022/03/27 08:29:59;;;;;;;7.20;3.30;;;12.80;58.20;;;;;;4190506;28;20046;-53
2022/03/27 08:32:03;;;;;;;6.33;3.33;;;12.90;57.70;;;;;;4189060;28;20078;-54
2022/03/27 08:34:04;;;;;;;5.03;2.80;;;12.90;57.50;;;;;;4190653;28;20052;-51
2022/03/27 08:36:05;;;;;;;7.93;3.17;;;13.00;57.40;;;;;;4189524;28;20481;-55
2022/03/27 08:38:06;;;;;;;9.70;5.07;;;13.00;56.90;;;;;;4189246;28;20118;-49
2022/03/27 08:40:08;;;;;;;5.33;3.30;;;12.90;57.10;;;;;;4189029;28;20048;-52
2022/03/27 08:42:09;;;;;;;5.63;2.83;;;12.90;56.40;;;;;;4190145;28;20048;-52
2022/03/27 08:44:12;;;;;;;3.47;2.77;;;12.90;56.30;;;;;;4186966;28;20041;-55
2022/03/27 08:46:16;;;;;;;4.40;2.40;;;13.00;55.50;;;;;;4190593;28;20095;-57
2022/03/27 08:48:17;;;;;;;6.73;3.10;;;13.00;55.10;;;;;;4181385;28;20026;-54
2022/03/27 08:50:44;;;;;;;7.80;3.00;;;13.10;55.20;;;;;;4190087;28;20044;-57
2022/03/27 08:53:05;;;;;;;5.47;2.80;;;13.20;54.80;;;;;;4187980;28;20449;-59
2022/03/27 08:55:29;;;;;;;4.13;2.73;;;13.30;52.90;;;;;;4190584;28;21290;-54
2022/03/27 08:57:54;;;;;;;3.63;2.43;;;13.40;53.90;;;;;;4189009;28;20440;-57
2022/03/27 08:59:57;;;;;;;6.23;2.90;;;13.40;53.40;;;;;;4178568;28;20036;-58
2022/03/27 09:01:59;;;;;;;5.30;2.83;;;13.40;54.10;;;;;;4172119;28;20563;-63
2022/03/27 09:04:00;;;;;;;4.83;2.70;;;13.50;54.80;;;;;;4173646;28;20536;-55
2022/03/27 09:06:04;;;;;;;5.57;3.03;;;13.50;55.50;;;;;;4172346;28;20359;-57
2022/03/27 09:08:10;;;;;;;5.93;3.80;;;13.70;55.50;;;;;;4172986;28;20077;-62
2022/03/27 09:10:12;;;;;;;9.07;3.87;;;13.80;55.50;;;;;;4172452;28;20103;-58
2022/03/27 09:12:15;;;;;;;11.83;3.77;;;13.70;56.30;;;;;;4173458;28;20033;-61
2022/03/27 09:14:17;;;;;;;5.13;2.33;;;13.90;56.00;;;;;;4171425;28;20106;-54
2022/03/27 09:16:19;;;;;;;5.47;2.90;;;14.00;53.10;;;;;;4173087;28;20559;-56
2022/03/27 09:18:20;;;;;;;4.93;3.00;;;13.60;51.90;;;;;;4170849;28;20029;-55
2022/03/27 09:20:48;;;;;;;5.37;2.73;;;13.50;51.70;;;;;;4172668;28;20025;-57
2022/03/27 09:22:49;;;;;;;7.37;3.03;;;13.60;51.10;;;;;;4171858;28;20079;-55
2022/03/27 09:25:01;;;;;;;6.40;2.80;;;13.40;52.00;;;;;;4178229;28;20776;-56
2022/03/27 09:27:02;;;;;;;10.03;3.20;;;13.60;52.60;;;;;;4181885;28;20091;-59
2022/03/27 09:29:11;;;;;;;3.27;2.20;;;13.70;52.40;;;;;;4173001;28;20032;-64
2022/03/27 09:31:18;;;;;;;3.63;2.20;;;13.70;52.40;;;;;;4175901;28;20150;-55
2022/03/27 09:33:33;;;;;;;4.37;2.63;;;13.80;52.00;;;;;;4187604;28;20500;-58
2022/03/27 09:35:36;;;;;;;11.30;3.00;;;13.90;51.50;;;;;;4188800;28;20044;-54
2022/03/27 09:37:41;;;;;;;7.53;2.83;;;14.00;49.00;;;;;;4186942;28;20482;-56
2022/03/27 09:39:55;;;;;;;4.90;2.60;;;13.70;49.60;;;;;;4189073;28;20437;-53
2022/03/27 09:42:03;;;;;;;6.17;2.43;;;13.60;49.00;;;;;;4189282;28;20102;-56
2022/03/27 09:44:09;;;;;;;5.33;2.37;;;13.60;50.00;;;;;;4191623;28;20082;-53
2022/03/27 09:46:10;;;;;;;12.80;2.73;;;13.50;49.60;;;;;;4192179;28;20024;-56
2022/03/27 09:48:11;;;;;;;8.87;3.77;;;13.50;49.40;;;;;;4192757;28;20428;-55
2022/03/27 09:50:32;;;;;;;4.60;3.03;;;13.20;50.30;;;;;;4191363;28;20074;-56
2022/03/27 09:52:33;;;;;;;7.80;3.53;;;13.20;51.60;;;;;;4192700;28;20109;-55
2022/03/27 09:54:44;;;;;;;4.03;2.70;;;13.30;51.90;;;;;;4191986;28;20058;-54
2022/03/27 09:56:45;;;;;;;13.43;3.30;;;13.40;51.90;;;;;;4192804;28;20531;-57
2022/03/27 09:58:47;;;;;;;6.47;2.97;;;13.50;51.70;;;;;;4191344;28;20032;-53
2022/03/27 10:01:10;;;;;;;5.80;2.77;;;13.70;51.00;;;;;;4192841;28;20048;-56
2022/03/27 10:03:11;;;;;;;4.53;2.70;;;13.80;50.00;;;;;;4191328;28;20114;-57
2022/03/27 10:05:17;;;;;;;5.83;2.70;;;13.30;50.40;;;;;;4192382;28;20086;-56
2022/03/27 10:07:18;;;;;;;5.03;2.67;;;13.30;51.00;;;;;;4191075;28;20040;-55
2022/03/27 10:09:19;;;;;;;5.97;2.73;;;13.40;51.00;;;;;;4192020;28;20466;-57
2022/03/27 10:11:22;;;;;;;3.97;2.50;;;13.30;50.10;;;;;;4191374;28;20036;-54
2022/03/27 10:13:28;;;;;;;6.10;3.03;;;13.30;49.90;;;;;;4192769;28;20025;-56
2022/03/27 10:15:30;;;;;;;10.83;3.27;;;13.30;50.30;;;;;;4191489;28;20055;-56
2022/03/27 10:17:34;;;;;;;4.80;2.80;;;13.30;51.00;;;;;;4192228;28;20044;-52
2022/03/27 10:19:49;;;;;;;7.40;3.33;;;13.30;51.30;;;;;;4191466;28;20036;-51
2022/03/27 10:21:52;;;;;;;6.30;3.33;;;13.30;51.50;;;;;;4191476;28;20057;-56
2022/03/27 10:24:14;;;;;;;5.87;2.97;;;13.20;50.90;;;;;;4189122;28;20067;-55
2022/03/27 10:26:15;;;;;;;6.90;2.87;;;13.20;51.10;;;;;;4191718;28;20086;-56
2022/03/27 10:28:18;;;;;;;10.03;3.07;;;13.40;51.50;;;;;;4190611;28;20110;-53
2022/03/27 10:30:20;;;;;;;6.80;2.87;;;13.50;51.30;;;;;;4192176;28;20041;-54
2022/03/27 10:32:21;;;;;;;5.60;2.80;;;13.60;51.30;;;;;;4190108;28;20810;-51
2022/03/27 10:34:23;;;;;;;6.93;3.40;;;13.50;50.50;;;;;;4192098;28;20029;-55
2022/03/27 10:36:49;;;;;;;5.33;4.00;;;13.60;50.30;;;;;;4190249;28;20040;-54
2022/03/27 10:39:16;;;;;;;5.60;3.40;;;13.60;49.60;;;;;;4191514;28;20041;-53
2022/03/27 10:41:27;;;;;;;5.87;3.83;;;13.60;49.40;;;;;;4190901;28;20032;-56
2022/03/27 10:43:49;;;;;;;7.80;3.47;;;13.70;50.30;;;;;;4192034;28;20067;-53
2022/03/27 10:46:10;;;;;;;5.93;3.80;;;13.90;50.00;;;;;;4184924;28;20509;-54
2022/03/27 10:48:12;;;;;;;;;;;13.90;48.40;;;;;;4175796;28;20041;-54